sensor_id;sensor_type;location;lat;lon;timestamp;P1;durP1;ratioP1;P2;durP2;ratioP2
20657;SDS011;10488;50.846;4.078;2022-09-09T00:01:35;5.43;;;1.70;;
20657;SDS011;10488;50.846;4.078;2022-09-09T00:09:19;10.02;;;2.17;;
20657;SDS011;10488;50.846;4.078;2022-09-09T00:12:10;3.30;;;1.80;;
20657;SDS011;10488;50.846;4.078;2022-09-09T00:22:44;5.07;;;1.63;;
20657;SDS011;10488;50.846;4.078;2022-09-09T00:25:37;6.65;;;1.77;;
20657;SDS011;10488;50.846;4.078;2022-09-09T00:28:08;11.40;;;1.65;;
20657;SDS011;10488;50.846;4.078;2022-09-09T00:30:43;6.78;;;1.88;;
20657;SDS011;10488;50.846;4.078;2022-09-09T00:33:12;6.72;;;2.10;;
20657;SDS011;10488;50.846;4.078;2022-09-09T00:36:41;5.40;;;1.73;;
20657;SDS011;10488;50.846;4.078;2022-09-09T00:38:42;6.57;;;1.70;;
20657;SDS011;10488;50.846;4.078;2022-09-09T00:44:35;4.47;;;1.80;;
20657;SDS011;10488;50.846;4.078;2022-09-09T00:52:24;7.13;;;2.22;;
20657;SDS011;10488;50.846;4.078;2022-09-09T00:55:05;6.35;;;2.60;;
20657;SDS011;10488;50.846;4.078;2022-09-09T00:57:35;10.93;;;2.88;;
20657;SDS011;10488;50.846;4.078;2022-09-09T01:02:52;8.32;;;2.95;;
20657;SDS011;10488;50.846;4.078;2022-09-09T01:05:25;8.45;;;3.40;;
20657;SDS011;10488;50.846;4.078;2022-09-09T01:08:12;16.05;;;3.40;;
20657;SDS011;10488;50.846;4.078;2022-09-09T01:11:00;10.88;;;4.22;;
20657;SDS011;10488;50.846;4.078;2022-09-09T01:13:35;10.88;;;4.45;;
20657;SDS011;10488;50.846;4.078;2022-09-09T01:16:03;11.23;;;4.53;;
20657;SDS011;10488;50.846;4.078;2022-09-09T01:18:34;8.27;;;4.25;;
20657;SDS011;10488;50.846;4.078;2022-09-09T01:21:13;10.00;;;4.22;;
20657;SDS011;10488;50.846;4.078;2022-09-09T01:23:57;12.90;;;4.47;;
20657;SDS011;10488;50.846;4.078;2022-09-09T01:26:35;8.43;;;4.75;;
20657;SDS011;10488;50.846;4.078;2022-09-09T01:29:07;15.40;;;4.97;;
20657;SDS011;10488;50.846;4.078;2022-09-09T01:31:41;13.85;;;5.30;;
20657;SDS011;10488;50.846;4.078;2022-09-09T01:34:31;11.18;;;4.25;;
20657;SDS011;10488;50.846;4.078;2022-09-09T01:37:02;11.90;;;4.60;;
20657;SDS011;10488;50.846;4.078;2022-09-09T01:39:31;13.55;;;4.40;;
20657;SDS011;10488;50.846;4.078;2022-09-09T01:41:58;11.52;;;4.28;;
20657;SDS011;10488;50.846;4.078;2022-09-09T01:44:24;12.43;;;3.95;;
20657;SDS011;10488;50.846;4.078;2022-09-09T01:46:51;10.90;;;4.13;;
20657;SDS011;10488;50.846;4.078;2022-09-09T01:49:17;7.35;;;3.20;;
20657;SDS011;10488;50.846;4.078;2022-09-09T01:51:43;12.82;;;3.75;;
20657;SDS011;10488;50.846;4.078;2022-09-09T01:54:10;11.07;;;3.67;;
20657;SDS011;10488;50.846;4.078;2022-09-09T01:56:40;13.90;;;3.22;;
20657;SDS011;10488;50.846;4.078;2022-09-09T02:01:57;9.88;;;3.13;;
20657;SDS011;10488;50.846;4.078;2022-09-09T02:04:38;9.98;;;3.10;;
20657;SDS011;10488;50.846;4.078;2022-09-09T02:07:11;10.23;;;3.00;;
20657;SDS011;10488;50.846;4.078;2022-09-09T02:10:05;10.75;;;3.28;;
20657;SDS011;10488;50.846;4.078;2022-09-09T02:12:43;15.63;;;3.47;;
20657;SDS011;10488;50.846;4.078;2022-09-09T02:15:18;14.32;;;2.78;;
20657;SDS011;10488;50.846;4.078;2022-09-09T02:17:49;7.38;;;2.42;;
20657;SDS011;10488;50.846;4.078;2022-09-09T02:20:18;14.18;;;3.35;;
20657;SDS011;10488;50.846;4.078;2022-09-09T02:22:45;9.63;;;3.15;;
20657;SDS011;10488;50.846;4.078;2022-09-09T02:25:14;12.48;;;2.67;;
20657;SDS011;10488;50.846;4.078;2022-09-09T02:27:45;9.65;;;2.55;;
20657;SDS011;10488;50.846;4.078;2022-09-09T02:30:12;7.80;;;3.15;;
20657;SDS011;10488;50.846;4.078;2022-09-09T02:32:39;13.10;;;2.83;;
20657;SDS011;10488;50.846;4.078;2022-09-09T02:35:29;13.07;;;3.03;;
20657;SDS011;10488;50.846;4.078;2022-09-09T02:37:56;13.73;;;3.05;;
20657;SDS011;10488;50.846;4.078;2022-09-09T02:40:24;13.60;;;3.05;;
20657;SDS011;10488;50.846;4.078;2022-09-09T02:42:50;9.00;;;2.80;;
20657;SDS011;10488;50.846;4.078;2022-09-09T02:45:17;9.07;;;3.22;;
20657;SDS011;10488;50.846;4.078;2022-09-09T02:48:07;12.05;;;2.85;;
20657;SDS011;10488;50.846;4.078;2022-09-09T02:53:31;14.85;;;3.40;;
20657;SDS011;10488;50.846;4.078;2022-09-09T02:56:12;14.20;;;2.97;;
20657;SDS011;10488;50.846;4.078;2022-09-09T02:58:42;6.90;;;2.47;;
20657;SDS011;10488;50.846;4.078;2022-09-09T03:01:07;10.10;;;2.65;;
20657;SDS011;10488;50.846;4.078;2022-09-09T03:03:33;13.48;;;2.90;;
20657;SDS011;10488;50.846;4.078;2022-09-09T03:05:59;18.50;;;3.60;;
20657;SDS011;10488;50.846;4.078;2022-09-09T03:08:25;13.23;;;3.00;;
20657;SDS011;10488;50.846;4.078;2022-09-09T03:10:52;11.38;;;2.60;;
20657;SDS011;10488;50.846;4.078;2022-09-09T03:13:19;11.43;;;2.72;;
20657;SDS011;10488;50.846;4.078;2022-09-09T03:15:45;12.45;;;3.13;;
20657;SDS011;10488;50.846;4.078;2022-09-09T03:18:10;12.50;;;3.17;;
20657;SDS011;10488;50.846;4.078;2022-09-09T03:20:36;14.15;;;3.10;;
20657;SDS011;10488;50.846;4.078;2022-09-09T03:23:02;15.98;;;3.42;;
20657;SDS011;10488;50.846;4.078;2022-09-09T03:25:27;11.38;;;2.78;;
20657;SDS011;10488;50.846;4.078;2022-09-09T03:27:54;11.55;;;2.25;;
20657;SDS011;10488;50.846;4.078;2022-09-09T03:30:21;11.50;;;2.90;;
20657;SDS011;10488;50.846;4.078;2022-09-09T03:32:47;12.57;;;3.67;;
20657;SDS011;10488;50.846;4.078;2022-09-09T03:35:13;15.38;;;2.90;;
20657;SDS011;10488;50.846;4.078;2022-09-09T03:37:40;15.23;;;2.47;;
20657;SDS011;10488;50.846;4.078;2022-09-09T03:40:06;11.77;;;2.67;;
20657;SDS011;10488;50.846;4.078;2022-09-09T03:42:34;18.58;;;3.50;;
20657;SDS011;10488;50.846;4.078;2022-09-09T03:45:02;10.60;;;2.40;;
20657;SDS011;10488;50.846;4.078;2022-09-09T03:47:29;10.07;;;2.42;;
20657;SDS011;10488;50.846;4.078;2022-09-09T03:49:55;6.38;;;2.30;;
20657;SDS011;10488;50.846;4.078;2022-09-09T03:52:21;8.10;;;2.35;;
20657;SDS011;10488;50.846;4.078;2022-09-09T03:54:50;12.70;;;2.50;;
20657;SDS011;10488;50.846;4.078;2022-09-09T03:57:16;9.18;;;1.95;;
20657;SDS011;10488;50.846;4.078;2022-09-09T03:59:42;11.85;;;3.33;;
20657;SDS011;10488;50.846;4.078;2022-09-09T04:02:08;9.07;;;2.58;;
20657;SDS011;10488;50.846;4.078;2022-09-09T04:04:34;11.82;;;2.63;;
20657;SDS011;10488;50.846;4.078;2022-09-09T04:07:00;15.52;;;2.92;;
20657;SDS011;10488;50.846;4.078;2022-09-09T04:09:27;7.82;;;2.22;;
20657;SDS011;10488;50.846;4.078;2022-09-09T04:11:53;8.88;;;2.20;;
20657;SDS011;10488;50.846;4.078;2022-09-09T04:14:20;12.45;;;2.80;;
20657;SDS011;10488;50.846;4.078;2022-09-09T04:16:46;11.38;;;3.45;;
20657;SDS011;10488;50.846;4.078;2022-09-09T04:19:12;10.65;;;2.40;;
20657;SDS011;10488;50.846;4.078;2022-09-09T04:21:39;9.93;;;2.70;;
20657;SDS011;10488;50.846;4.078;2022-09-09T04:24:06;11.77;;;2.83;;
20657;SDS011;10488;50.846;4.078;2022-09-09T04:26:33;11.25;;;2.65;;
20657;SDS011;10488;50.846;4.078;2022-09-09T04:28:59;15.60;;;2.97;;
20657;SDS011;10488;50.846;4.078;2022-09-09T04:31:25;12.93;;;3.30;;
20657;SDS011;10488;50.846;4.078;2022-09-09T04:33:52;16.38;;;3.28;;
20657;SDS011;10488;50.846;4.078;2022-09-09T04:36:18;12.43;;;2.75;;
20657;SDS011;10488;50.846;4.078;2022-09-09T04:38:45;13.35;;;3.30;;
20657;SDS011;10488;50.846;4.078;2022-09-09T04:41:11;9.35;;;2.50;;
20657;SDS011;10488;50.846;4.078;2022-09-09T04:43:38;14.13;;;2.90;;
20657;SDS011;10488;50.846;4.078;2022-09-09T04:46:04;8.57;;;2.25;;
20657;SDS011;10488;50.846;4.078;2022-09-09T04:48:30;9.00;;;2.63;;
20657;SDS011;10488;50.846;4.078;2022-09-09T04:53:24;13.23;;;2.72;;
20657;SDS011;10488;50.846;4.078;2022-09-09T04:55:50;11.73;;;3.10;;
20657;SDS011;10488;50.846;4.078;2022-09-09T04:58:37;9.75;;;2.72;;
20657;SDS011;10488;50.846;4.078;2022-09-09T05:01:08;11.45;;;2.70;;
20657;SDS011;10488;50.846;4.078;2022-09-09T05:03:36;13.75;;;3.40;;
20657;SDS011;10488;50.846;4.078;2022-09-09T05:06:06;12.30;;;3.33;;
20657;SDS011;10488;50.846;4.078;2022-09-09T05:08:36;14.55;;;3.30;;
20657;SDS011;10488;50.846;4.078;2022-09-09T05:11:04;12.07;;;3.00;;
20657;SDS011;10488;50.846;4.078;2022-09-09T05:13:41;13.13;;;3.25;;
20657;SDS011;10488;50.846;4.078;2022-09-09T05:16:06;9.65;;;2.22;;
20657;SDS011;10488;50.846;4.078;2022-09-09T05:18:32;10.85;;;2.67;;
20657;SDS011;10488;50.846;4.078;2022-09-09T05:21:01;12.45;;;2.72;;
20657;SDS011;10488;50.846;4.078;2022-09-09T05:23:26;14.43;;;3.20;;
20657;SDS011;10488;50.846;4.078;2022-09-09T05:25:56;9.73;;;2.58;;
20657;SDS011;10488;50.846;4.078;2022-09-09T05:28:23;12.57;;;2.42;;
20657;SDS011;10488;50.846;4.078;2022-09-09T05:30:57;15.45;;;2.70;;
20657;SDS011;10488;50.846;4.078;2022-09-09T05:33:24;16.60;;;4.10;;
20657;SDS011;10488;50.846;4.078;2022-09-09T05:36:00;10.43;;;2.90;;
20657;SDS011;10488;50.846;4.078;2022-09-09T05:38:31;13.27;;;3.47;;
20657;SDS011;10488;50.846;4.078;2022-09-09T05:40:58;20.55;;;3.15;;
20657;SDS011;10488;50.846;4.078;2022-09-09T05:43:24;17.55;;;2.97;;
20657;SDS011;10488;50.846;4.078;2022-09-09T05:46:01;11.32;;;3.45;;
20657;SDS011;10488;50.846;4.078;2022-09-09T05:48:36;14.48;;;3.60;;
20657;SDS011;10488;50.846;4.078;2022-09-09T05:51:03;13.00;;;2.53;;
20657;SDS011;10488;50.846;4.078;2022-09-09T05:53:32;9.20;;;2.35;;
20657;SDS011;10488;50.846;4.078;2022-09-09T05:56:05;16.05;;;2.55;;
20657;SDS011;10488;50.846;4.078;2022-09-09T05:58:36;9.43;;;2.08;;
20657;SDS011;10488;50.846;4.078;2022-09-09T06:01:03;11.65;;;2.10;;
20657;SDS011;10488;50.846;4.078;2022-09-09T06:03:29;16.52;;;2.33;;
20657;SDS011;10488;50.846;4.078;2022-09-09T06:05:58;11.65;;;2.17;;
20657;SDS011;10488;50.846;4.078;2022-09-09T06:08:35;9.80;;;2.40;;
20657;SDS011;10488;50.846;4.078;2022-09-09T06:11:04;14.15;;;2.85;;
20657;SDS011;10488;50.846;4.078;2022-09-09T06:13:31;9.70;;;2.45;;
20657;SDS011;10488;50.846;4.078;2022-09-09T06:15:57;10.40;;;2.05;;
20657;SDS011;10488;50.846;4.078;2022-09-09T06:18:24;16.15;;;2.25;;
20657;SDS011;10488;50.846;4.078;2022-09-09T06:20:58;12.52;;;2.72;;
20657;SDS011;10488;50.846;4.078;2022-09-09T06:23:31;10.73;;;1.92;;
20657;SDS011;10488;50.846;4.078;2022-09-09T06:26:01;8.70;;;1.77;;
20657;SDS011;10488;50.846;4.078;2022-09-09T06:28:43;10.05;;;2.97;;
20657;SDS011;10488;50.846;4.078;2022-09-09T06:31:13;10.30;;;2.47;;
20657;SDS011;10488;50.846;4.078;2022-09-09T06:33:41;9.90;;;2.13;;
20657;SDS011;10488;50.846;4.078;2022-09-09T06:36:10;10.20;;;2.92;;
20657;SDS011;10488;50.846;4.078;2022-09-09T06:38:38;11.57;;;2.05;;
20657;SDS011;10488;50.846;4.078;2022-09-09T06:41:03;8.80;;;2.85;;
20657;SDS011;10488;50.846;4.078;2022-09-09T06:43:30;11.68;;;2.00;;
20657;SDS011;10488;50.846;4.078;2022-09-09T06:45:57;10.23;;;2.70;;
20657;SDS011;10488;50.846;4.078;2022-09-09T06:48:24;11.57;;;2.25;;
20657;SDS011;10488;50.846;4.078;2022-09-09T06:51:06;9.82;;;2.17;;
20657;SDS011;10488;50.846;4.078;2022-09-09T06:53:34;11.13;;;2.97;;
20657;SDS011;10488;50.846;4.078;2022-09-09T06:56:01;7.53;;;2.17;;
20657;SDS011;10488;50.846;4.078;2022-09-09T06:58:48;10.40;;;2.25;;
20657;SDS011;10488;50.846;4.078;2022-09-09T07:01:19;8.77;;;2.10;;
20657;SDS011;10488;50.846;4.078;2022-09-09T07:03:53;9.20;;;2.22;;
20657;SDS011;10488;50.846;4.078;2022-09-09T07:06:21;10.07;;;2.60;;
20657;SDS011;10488;50.846;4.078;2022-09-09T07:08:54;10.73;;;2.67;;
20657;SDS011;10488;50.846;4.078;2022-09-09T07:11:22;5.85;;;1.95;;
20657;SDS011;10488;50.846;4.078;2022-09-09T07:13:50;9.65;;;2.75;;
20657;SDS011;10488;50.846;4.078;2022-09-09T07:16:16;15.60;;;2.53;;
20657;SDS011;10488;50.846;4.078;2022-09-09T07:18:43;13.13;;;2.47;;
20657;SDS011;10488;50.846;4.078;2022-09-09T07:21:12;12.50;;;3.00;;
20657;SDS011;10488;50.846;4.078;2022-09-09T07:23:39;12.68;;;2.20;;
20657;SDS011;10488;50.846;4.078;2022-09-09T07:26:12;14.55;;;2.47;;
20657;SDS011;10488;50.846;4.078;2022-09-09T07:28:40;9.43;;;2.20;;
20657;SDS011;10488;50.846;4.078;2022-09-09T07:31:07;13.75;;;2.38;;
20657;SDS011;10488;50.846;4.078;2022-09-09T07:33:41;7.88;;;1.80;;
20657;SDS011;10488;50.846;4.078;2022-09-09T07:36:09;9.52;;;2.58;;
20657;SDS011;10488;50.846;4.078;2022-09-09T07:38:41;12.70;;;1.60;;
20657;SDS011;10488;50.846;4.078;2022-09-09T07:41:10;14.40;;;2.30;;
20657;SDS011;10488;50.846;4.078;2022-09-09T07:43:41;13.45;;;2.40;;
20657;SDS011;10488;50.846;4.078;2022-09-09T07:46:08;7.93;;;2.40;;
20657;SDS011;10488;50.846;4.078;2022-09-09T07:48:34;9.32;;;2.42;;
20657;SDS011;10488;50.846;4.078;2022-09-09T07:51:19;10.02;;;1.88;;
20657;SDS011;10488;50.846;4.078;2022-09-09T07:53:47;9.65;;;2.15;;
20657;SDS011;10488;50.846;4.078;2022-09-09T07:56:17;9.48;;;2.33;;
20657;SDS011;10488;50.846;4.078;2022-09-09T07:58:44;12.35;;;1.90;;
20657;SDS011;10488;50.846;4.078;2022-09-09T08:01:13;11.93;;;1.58;;
20657;SDS011;10488;50.846;4.078;2022-09-09T08:03:52;6.43;;;2.10;;
20657;SDS011;10488;50.846;4.078;2022-09-09T08:06:30;11.82;;;2.05;;
20657;SDS011;10488;50.846;4.078;2022-09-09T08:08:58;9.02;;;1.70;;
20657;SDS011;10488;50.846;4.078;2022-09-09T08:11:24;9.23;;;1.98;;
20657;SDS011;10488;50.846;4.078;2022-09-09T08:13:52;15.45;;;2.65;;
20657;SDS011;10488;50.846;4.078;2022-09-09T08:16:37;17.35;;;2.40;;
20657;SDS011;10488;50.846;4.078;2022-09-09T08:19:06;10.98;;;2.42;;
20657;SDS011;10488;50.846;4.078;2022-09-09T08:21:33;8.35;;;2.50;;
20657;SDS011;10488;50.846;4.078;2022-09-09T08:24:02;8.73;;;1.70;;
20657;SDS011;10488;50.846;4.078;2022-09-09T08:26:30;9.00;;;2.20;;
20657;SDS011;10488;50.846;4.078;2022-09-09T08:29:01;9.02;;;2.53;;
20657;SDS011;10488;50.846;4.078;2022-09-09T08:31:29;9.60;;;2.30;;
20657;SDS011;10488;50.846;4.078;2022-09-09T08:33:57;11.25;;;2.47;;
20657;SDS011;10488;50.846;4.078;2022-09-09T08:36:28;8.68;;;2.67;;
20657;SDS011;10488;50.846;4.078;2022-09-09T08:38:58;8.73;;;2.70;;
20657;SDS011;10488;50.846;4.078;2022-09-09T08:41:34;10.45;;;2.10;;
20657;SDS011;10488;50.846;4.078;2022-09-09T08:55:54;6.13;;;1.88;;
20657;SDS011;10488;50.846;4.078;2022-09-09T08:58:26;11.48;;;2.15;;
20657;SDS011;10488;50.846;4.078;2022-09-09T09:06:24;9.07;;;2.17;;
20657;SDS011;10488;50.846;4.078;2022-09-09T09:09:27;8.57;;;2.22;;
20657;SDS011;10488;50.846;4.078;2022-09-09T09:12:05;9.55;;;1.95;;
20657;SDS011;10488;50.846;4.078;2022-09-09T09:14:40;11.10;;;2.63;;
20657;SDS011;10488;50.846;4.078;2022-09-09T09:17:14;8.88;;;2.13;;
20657;SDS011;10488;50.846;4.078;2022-09-09T09:19:48;7.70;;;2.35;;
20657;SDS011;10488;50.846;4.078;2022-09-09T09:22:32;10.13;;;2.55;;
20657;SDS011;10488;50.846;4.078;2022-09-09T09:27:46;10.82;;;2.30;;
20657;SDS011;10488;50.846;4.078;2022-09-09T09:30:21;8.82;;;2.17;;
20657;SDS011;10488;50.846;4.078;2022-09-09T09:33:13;7.95;;;2.58;;
20657;SDS011;10488;50.846;4.078;2022-09-09T09:35:43;8.15;;;2.40;;
20657;SDS011;10488;50.846;4.078;2022-09-09T09:38:19;7.32;;;2.05;;
20657;SDS011;10488;50.846;4.078;2022-09-09T09:40:58;6.88;;;2.35;;
20657;SDS011;10488;50.846;4.078;2022-09-09T09:43:28;9.45;;;2.88;;
20657;SDS011;10488;50.846;4.078;2022-09-09T09:45:56;9.30;;;2.78;;
20657;SDS011;10488;50.846;4.078;2022-09-09T09:48:23;9.45;;;2.45;;
20657;SDS011;10488;50.846;4.078;2022-09-09T09:50:54;8.77;;;2.08;;
20657;SDS011;10488;50.846;4.078;2022-09-09T09:53:29;12.77;;;2.78;;
20657;SDS011;10488;50.846;4.078;2022-09-09T09:58:24;6.88;;;1.80;;
20657;SDS011;10488;50.846;4.078;2022-09-09T10:00:53;7.28;;;2.15;;
20657;SDS011;10488;50.846;4.078;2022-09-09T10:03:29;7.53;;;1.77;;
20657;SDS011;10488;50.846;4.078;2022-09-09T10:05:56;7.72;;;1.60;;
20657;SDS011;10488;50.846;4.078;2022-09-09T10:08:23;8.88;;;1.85;;
20657;SDS011;10488;50.846;4.078;2022-09-09T10:11:02;5.13;;;1.48;;
20657;SDS011;10488;50.846;4.078;2022-09-09T10:16:45;5.97;;;2.10;;
20657;SDS011;10488;50.846;4.078;2022-09-09T10:19:32;6.00;;;1.70;;
20657;SDS011;10488;50.846;4.078;2022-09-09T10:25:10;6.75;;;1.65;;
20657;SDS011;10488;50.846;4.078;2022-09-09T10:36:29;5.07;;;1.67;;
20657;SDS011;10488;50.846;4.078;2022-09-09T10:42:13;9.20;;;1.83;;
20657;SDS011;10488;50.846;4.078;2022-09-09T10:44:59;3.88;;;1.30;;
20657;SDS011;10488;50.846;4.078;2022-09-09T10:55:42;4.75;;;1.48;;
20657;SDS011;10488;50.846;4.078;2022-09-09T10:58:12;7.35;;;1.40;;
20657;SDS011;10488;50.846;4.078;2022-09-09T11:00:49;3.28;;;1.15;;
20657;SDS011;10488;50.846;4.078;2022-09-09T11:03:23;6.15;;;1.90;;
20657;SDS011;10488;50.846;4.078;2022-09-09T11:06:13;6.95;;;1.63;;
20657;SDS011;10488;50.846;4.078;2022-09-09T11:08:40;5.18;;;1.60;;
20657;SDS011;10488;50.846;4.078;2022-09-09T11:16:34;6.32;;;1.38;;
20657;SDS011;10488;50.846;4.078;2022-09-09T11:21:50;5.35;;;1.20;;
20657;SDS011;10488;50.846;4.078;2022-09-09T11:24:20;4.50;;;1.58;;
20657;SDS011;10488;50.846;4.078;2022-09-09T11:29:53;3.63;;;1.20;;
20657;SDS011;10488;50.846;4.078;2022-09-09T11:32:47;6.15;;;1.52;;
20657;SDS011;10488;50.846;4.078;2022-09-09T11:41:13;6.82;;;1.35;;
20657;SDS011;10488;50.846;4.078;2022-09-09T11:43:47;9.60;;;1.73;;
20657;SDS011;10488;50.846;4.078;2022-09-09T11:46:18;5.00;;;1.58;;
20657;SDS011;10488;50.846;4.078;2022-09-09T11:49:00;2.72;;;1.23;;
20657;SDS011;10488;50.846;4.078;2022-09-09T11:51:28;4.63;;;1.10;;
20657;SDS011;10488;50.846;4.078;2022-09-09T12:01:29;5.30;;;1.38;;
20657;SDS011;10488;50.846;4.078;2022-09-09T12:04:06;4.68;;;1.23;;
20657;SDS011;10488;50.846;4.078;2022-09-09T12:11:41;4.43;;;1.40;;
20657;SDS011;10488;50.846;4.078;2022-09-09T12:17:23;7.63;;;2.05;;
20657;SDS011;10488;50.846;4.078;2022-09-09T12:20:00;2.67;;;1.15;;
20657;SDS011;10488;50.846;4.078;2022-09-09T12:28:24;4.82;;;1.27;;
20657;SDS011;10488;50.846;4.078;2022-09-09T12:33:22;5.40;;;1.15;;
20657;SDS011;10488;50.846;4.078;2022-09-09T12:35:58;4.03;;;1.27;;
20657;SDS011;10488;50.846;4.078;2022-09-09T12:38:36;4.55;;;1.23;;
20657;SDS011;10488;50.846;4.078;2022-09-09T12:41:04;5.00;;;1.00;;
20657;SDS011;10488;50.846;4.078;2022-09-09T12:43:30;4.15;;;1.45;;
20657;SDS011;10488;50.846;4.078;2022-09-09T12:45:57;6.72;;;1.27;;
20657;SDS011;10488;50.846;4.078;2022-09-09T12:48:31;4.20;;;1.30;;
20657;SDS011;10488;50.846;4.078;2022-09-09T12:51:14;6.10;;;1.52;;
20657;SDS011;10488;50.846;4.078;2022-09-09T12:53:56;4.63;;;1.30;;
20657;SDS011;10488;50.846;4.078;2022-09-09T12:56:26;8.75;;;1.42;;
20657;SDS011;10488;50.846;4.078;2022-09-09T12:58:55;4.57;;;1.23;;
20657;SDS011;10488;50.846;4.078;2022-09-09T13:01:24;5.72;;;1.30;;
20657;SDS011;10488;50.846;4.078;2022-09-09T13:03:52;4.20;;;1.05;;
20657;SDS011;10488;50.846;4.078;2022-09-09T13:06:22;3.58;;;1.17;;
20657;SDS011;10488;50.846;4.078;2022-09-09T13:08:50;8.43;;;1.45;;
20657;SDS011;10488;50.846;4.078;2022-09-09T13:11:19;5.32;;;0.95;;
20657;SDS011;10488;50.846;4.078;2022-09-09T13:13:50;5.57;;;1.15;;
20657;SDS011;10488;50.846;4.078;2022-09-09T13:18:48;6.03;;;1.33;;
20657;SDS011;10488;50.846;4.078;2022-09-09T13:21:14;4.32;;;1.13;;
20657;SDS011;10488;50.846;4.078;2022-09-09T13:23:40;2.80;;;0.90;;
20657;SDS011;10488;50.846;4.078;2022-09-09T13:26:18;2.45;;;1.13;;
20657;SDS011;10488;50.846;4.078;2022-09-09T13:28:47;4.82;;;0.90;;
20657;SDS011;10488;50.846;4.078;2022-09-09T13:34:11;2.80;;;0.70;;
20657;SDS011;10488;50.846;4.078;2022-09-09T13:36:56;2.60;;;1.08;;
20657;SDS011;10488;50.846;4.078;2022-09-09T13:39:26;5.80;;;1.20;;
20657;SDS011;10488;50.846;4.078;2022-09-09T13:41:52;2.80;;;1.00;;
20657;SDS011;10488;50.846;4.078;2022-09-09T13:44:25;5.05;;;1.15;;
20657;SDS011;10488;50.846;4.078;2022-09-09T13:49:44;7.00;;;1.30;;
20657;SDS011;10488;50.846;4.078;2022-09-09T13:54:38;5.88;;;1.50;;
20657;SDS011;10488;50.846;4.078;2022-09-09T13:57:04;5.15;;;1.60;;
20657;SDS011;10488;50.846;4.078;2022-09-09T13:59:31;6.22;;;1.65;;
20657;SDS011;10488;50.846;4.078;2022-09-09T14:01:57;4.53;;;1.77;;
20657;SDS011;10488;50.846;4.078;2022-09-09T14:04:23;4.47;;;1.30;;
20657;SDS011;10488;50.846;4.078;2022-09-09T14:06:49;5.55;;;1.50;;
20657;SDS011;10488;50.846;4.078;2022-09-09T14:09:15;3.35;;;1.08;;
20657;SDS011;10488;50.846;4.078;2022-09-09T14:11:43;5.97;;;1.10;;
20657;SDS011;10488;50.846;4.078;2022-09-09T14:14:10;4.55;;;1.27;;
20657;SDS011;10488;50.846;4.078;2022-09-09T14:16:36;2.50;;;1.20;;
20657;SDS011;10488;50.846;4.078;2022-09-09T14:19:02;16.58;;;2.70;;
20657;SDS011;10488;50.846;4.078;2022-09-09T14:21:28;12.85;;;1.80;;
20657;SDS011;10488;50.846;4.078;2022-09-09T14:23:54;3.67;;;1.00;;
20657;SDS011;10488;50.846;4.078;2022-09-09T14:26:20;6.03;;;1.30;;
20657;SDS011;10488;50.846;4.078;2022-09-09T14:28:46;3.05;;;1.58;;
20657;SDS011;10488;50.846;4.078;2022-09-09T14:31:13;5.50;;;1.45;;
20657;SDS011;10488;50.846;4.078;2022-09-09T14:33:39;3.28;;;1.40;;
20657;SDS011;10488;50.846;4.078;2022-09-09T14:36:05;5.38;;;1.15;;
20657;SDS011;10488;50.846;4.078;2022-09-09T14:38:32;1.75;;;1.15;;
20657;SDS011;10488;50.846;4.078;2022-09-09T14:41:03;6.95;;;1.60;;
20657;SDS011;10488;50.846;4.078;2022-09-09T14:43:29;7.32;;;1.42;;
20657;SDS011;10488;50.846;4.078;2022-09-09T14:45:57;4.00;;;1.10;;
20657;SDS011;10488;50.846;4.078;2022-09-09T14:48:30;4.88;;;1.42;;
20657;SDS011;10488;50.846;4.078;2022-09-09T14:50:56;4.82;;;1.08;;
20657;SDS011;10488;50.846;4.078;2022-09-09T14:53:22;3.30;;;1.17;;
20657;SDS011;10488;50.846;4.078;2022-09-09T14:55:48;2.75;;;1.17;;
20657;SDS011;10488;50.846;4.078;2022-09-09T14:58:14;7.38;;;1.55;;
20657;SDS011;10488;50.846;4.078;2022-09-09T15:00:39;3.65;;;1.38;;
20657;SDS011;10488;50.846;4.078;2022-09-09T15:03:06;62.97;;;7.82;;
20657;SDS011;10488;50.846;4.078;2022-09-09T15:05:31;4.82;;;2.00;;
20657;SDS011;10488;50.846;4.078;2022-09-09T15:07:57;5.15;;;1.10;;
20657;SDS011;10488;50.846;4.078;2022-09-09T15:10:23;4.13;;;1.23;;
20657;SDS011;10488;50.846;4.078;2022-09-09T15:12:49;3.58;;;1.17;;
20657;SDS011;10488;50.846;4.078;2022-09-09T15:15:15;3.78;;;1.33;;
20657;SDS011;10488;50.846;4.078;2022-09-09T15:17:40;5.25;;;1.48;;
20657;SDS011;10488;50.846;4.078;2022-09-09T15:20:06;18.48;;;2.40;;
20657;SDS011;10488;50.846;4.078;2022-09-09T15:22:32;7.40;;;1.75;;
20657;SDS011;10488;50.846;4.078;2022-09-09T15:24:58;6.05;;;1.83;;
20657;SDS011;10488;50.846;4.078;2022-09-09T15:27:24;6.88;;;1.48;;
20657;SDS011;10488;50.846;4.078;2022-09-09T15:29:50;15.85;;;1.95;;
20657;SDS011;10488;50.846;4.078;2022-09-09T15:32:16;4.45;;;1.20;;
20657;SDS011;10488;50.846;4.078;2022-09-09T15:34:42;4.78;;;0.98;;
20657;SDS011;10488;50.846;4.078;2022-09-09T15:37:09;1.50;;;1.13;;
20657;SDS011;10488;50.846;4.078;2022-09-09T15:39:38;4.22;;;1.15;;
20657;SDS011;10488;50.846;4.078;2022-09-09T15:42:04;4.25;;;1.67;;
20657;SDS011;10488;50.846;4.078;2022-09-09T15:44:41;1.23;;;1.02;;
20657;SDS011;10488;50.846;4.078;2022-09-09T15:47:07;4.40;;;1.20;;
20657;SDS011;10488;50.846;4.078;2022-09-09T15:49:37;4.45;;;1.13;;
20657;SDS011;10488;50.846;4.078;2022-09-09T15:52:03;4.43;;;1.50;;
20657;SDS011;10488;50.846;4.078;2022-09-09T15:54:33;4.15;;;1.50;;
20657;SDS011;10488;50.846;4.078;2022-09-09T15:57:02;7.45;;;1.75;;
20657;SDS011;10488;50.846;4.078;2022-09-09T15:59:29;5.00;;;1.50;;
20657;SDS011;10488;50.846;4.078;2022-09-09T16:01:56;4.35;;;1.48;;
20657;SDS011;10488;50.846;4.078;2022-09-09T16:04:23;2.28;;;1.02;;
20657;SDS011;10488;50.846;4.078;2022-09-09T16:06:53;15.77;;;1.60;;
20657;SDS011;10488;50.846;4.078;2022-09-09T16:09:26;2.85;;;0.75;;
20657;SDS011;10488;50.846;4.078;2022-09-09T16:11:53;2.65;;;1.00;;
20657;SDS011;10488;50.846;4.078;2022-09-09T16:14:23;2.55;;;1.08;;
20657;SDS011;10488;50.846;4.078;2022-09-09T16:16:49;4.30;;;1.20;;
20657;SDS011;10488;50.846;4.078;2022-09-09T16:19:15;5.95;;;1.08;;
20657;SDS011;10488;50.846;4.078;2022-09-09T16:21:43;3.00;;;1.38;;
20657;SDS011;10488;50.846;4.078;2022-09-09T16:24:12;4.75;;;1.10;;
20657;SDS011;10488;50.846;4.078;2022-09-09T16:26:42;4.53;;;1.30;;
20657;SDS011;10488;50.846;4.078;2022-09-09T16:29:12;2.25;;;1.00;;
20657;SDS011;10488;50.846;4.078;2022-09-09T16:31:39;3.17;;;0.77;;
20657;SDS011;10488;50.846;4.078;2022-09-09T16:34:06;2.90;;;1.02;;
20657;SDS011;10488;50.846;4.078;2022-09-09T16:36:33;5.40;;;1.30;;
20657;SDS011;10488;50.846;4.078;2022-09-09T16:39:00;2.88;;;0.98;;
20657;SDS011;10488;50.846;4.078;2022-09-09T16:41:30;2.05;;;0.90;;
20657;SDS011;10488;50.846;4.078;2022-09-09T16:43:57;2.95;;;0.93;;
20657;SDS011;10488;50.846;4.078;2022-09-09T16:46:25;2.60;;;1.02;;
20657;SDS011;10488;50.846;4.078;2022-09-09T16:48:52;5.25;;;0.90;;
20657;SDS011;10488;50.846;4.078;2022-09-09T16:51:21;3.50;;;0.95;;
20657;SDS011;10488;50.846;4.078;2022-09-09T16:53:55;14.00;;;2.35;;
20657;SDS011;10488;50.846;4.078;2022-09-09T16:56:23;1.23;;;0.70;;
20657;SDS011;10488;50.846;4.078;2022-09-09T16:58:52;4.45;;;0.75;;
20657;SDS011;10488;50.846;4.078;2022-09-09T17:01:21;4.30;;;1.10;;
20657;SDS011;10488;50.846;4.078;2022-09-09T17:03:53;2.80;;;1.13;;
20657;SDS011;10488;50.846;4.078;2022-09-09T17:06:20;2.70;;;1.00;;
20657;SDS011;10488;50.846;4.078;2022-09-09T17:08:46;8.68;;;1.35;;
20657;SDS011;10488;50.846;4.078;2022-09-09T17:13:41;4.00;;;0.80;;
20657;SDS011;10488;50.846;4.078;2022-09-09T17:16:08;7.47;;;0.80;;
20657;SDS011;10488;50.846;4.078;2022-09-09T17:18:34;2.55;;;1.05;;